createdAt,value
2018-05-31T00:10:00.317Z,48.2
2018-05-31T00:20:11.851Z,44.7
2018-05-31T00:30:57.505Z,62.1
2018-05-31T00:41:43.612Z,61.9
2018-05-31T00:51:55.709Z,52.5
2018-05-31T01:02:07.931Z,49.1
2018-05-31T01:12:53.929Z,63.4
2018-05-31T01:23:08.885Z,55.8
2018-05-31T01:33:21.152Z,53.4
2018-05-31T01:43:35.721Z,53.3
2018-05-31T01:53:47.713Z,47.2
2018-05-31T02:03:59.953Z,62.0
2018-05-31T02:14:14.234Z,64.8
2018-05-31T02:24:26.709Z,64.6
2018-05-31T02:35:12.409Z,72.4
2018-05-31T02:45:24.987Z,64.3
2018-05-31T02:55:36.842Z,52.8
2018-05-31T03:05:49.231Z,71.1
2018-05-31T03:16:30.899Z,66.2
2018-05-31T03:28:07.895Z,83.0
2018-05-31T03:38:22.655Z,85.1
2018-05-31T03:48:34.870Z,69.6
2018-05-31T03:59:24.063Z,75.9
2018-05-31T04:09:36.023Z,65.1
2018-05-31T04:19:49.298Z,92.1
2018-05-31T04:40:21.716Z,77.3
2018-05-31T04:50:33.843Z,77.6
2018-05-31T05:00:48.320Z,82.6
2018-05-31T05:11:35.158Z,84.6
2018-05-31T05:22:21.424Z,91.3
2018-05-31T05:32:43.411Z,80.6
2018-05-31T05:42:57.867Z,72.7
2018-05-31T05:53:27.345Z,66.0
2018-05-31T06:04:17.315Z,69.2
2018-05-31T06:14:29.709Z,67.6
2018-05-31T06:24:41.549Z,64.2
2018-05-31T06:35:17.431Z,53.1
2018-05-31T06:46:02.930Z,50.6
2018-05-31T06:56:48.902Z,57.1
2018-05-31T07:07:03.820Z,45.2
2018-05-31T07:17:18.475Z,47.4
2018-05-31T07:27:30.959Z,41.8
2018-05-31T07:37:45.369Z,37.2
2018-05-31T07:47:59.859Z,36.9
2018-05-31T07:58:47.217Z,39.3
2018-05-31T08:09:32.355Z,40.2
2018-05-31T08:20:18.185Z,33.5
2018-05-31T08:31:30.732Z,33.8
2018-05-31T08:42:16.323Z,30.0
2018-05-31T08:52:30.240Z,31.0
2018-05-31T09:02:43.264Z,26.6
2018-05-31T09:13:01.478Z,28.4
2018-05-31T09:23:23.443Z,25.6
2018-05-31T09:33:37.496Z,24.5
2018-05-31T09:44:29.528Z,25.4
2018-05-31T09:55:04.089Z,22.4
2018-05-31T10:05:18.919Z,24.6
2018-05-31T10:16:04.245Z,21.4
2018-05-31T10:27:17.711Z,21.2
2018-05-31T10:37:31.274Z,21.5
2018-05-31T10:48:30.899Z,21.5
2018-05-31T10:59:00.496Z,21.3
2018-05-31T11:10:15.605Z,20.2
2018-05-31T11:20:50.113Z,20.6
2018-05-31T11:41:22.289Z,21.6
2018-05-31T11:51:38.300Z,21.3
2018-05-31T12:01:55.205Z,23.5
2018-05-31T12:12:09.200Z,26.6
2018-05-31T12:23:03.056Z,22.9
2018-05-31T12:49:21.441Z,24.0
2018-05-31T13:04:29.636Z,22.7
2018-05-31T13:19:00.454Z,27.7
2018-05-31T14:20:11.343Z,29.2
2018-05-31T14:33:02.446Z,28.0
2018-05-31T15:08:59.724Z,30.4
2018-05-31T15:21:17.632Z,35.1
2018-05-31T15:32:27.128Z,32.9
2018-05-31T15:43:25.789Z,43.4
2018-05-31T15:57:16.448Z,42.4
2018-05-31T16:08:27.061Z,37.2
2018-05-31T16:19:49.520Z,33.7
2018-05-31T16:32:09.586Z,37.3
2018-05-31T16:43:20.410Z,36.0
2018-05-31T16:56:31.138Z,31.2
2018-05-31T17:08:36.208Z,35.7
2018-05-31T17:32:33.762Z,36.8
2018-05-31T17:58:40.774Z,37.6
2018-05-31T18:32:18.628Z,43.9
2018-05-31T18:45:04.261Z,51.2
2018-05-31T20:23:33.399Z,45.9
2018-05-31T20:33:55.939Z,37.7
2018-05-31T20:44:34.904Z,38.1
2018-05-31T20:55:23.060Z,47.4
2018-05-31T21:05:49.685Z,36.0
2018-05-31T21:16:04.328Z,41.6
2018-05-31T21:27:19.426Z,49.1
2018-05-31T21:37:54.727Z,44.0
2018-05-31T21:48:14.025Z,37.2
2018-05-31T21:58:27.932Z,47.5
2018-05-31T22:08:47.905Z,44.5
2018-05-31T22:19:14.333Z,40.0
2018-05-31T22:30:01.551Z,59.0
2018-05-31T22:40:15.530Z,42.4
2018-05-31T22:50:32.096Z,41.1
2018-05-31T23:00:46.662Z,43.7
2018-05-31T23:11:12.915Z,48.3
2018-05-31T23:32:53.055Z,55.8
2018-05-31T23:43:09.631Z,52.1
